Disclaimer

Please do not use the information listed here in-flight or in-navigation, as they are not provided to us by the airports but are provided by volunteers, so they might be outdated.

Search


Regions


Airport information page

Radio informations:
Tower (TWR) - 118.1 MHz
RDO - 5526 MHz
APRON - 121.75 MHz
Ground (GND) - 121.9 MHz
Automatic Terminal Information Service (ATIS) - 126.7 MHz
Approach (APP) - 119.0 MHz
ACC - 123.7 MHz

Airport informations:
Latitude: 10° 35' 43.33" N
Longitude: 061° 20' 14.07" W
Elevation: 58 feet - 18 meters
Operating hours: N/A
Operating agency: Civil government, landing fees and diplomatic clearance may be required
Timezone: UTC-4
Fuel: Jet A1, without icing nhibitor.

115/145 octane gasoline, leaded, MIL-L-5572F (PURPLE)

80/87 octane gasoline, leaded, MIL-L-5572F (RED)

100/130 MIL Spec, low lead, aviation gasoline (BLUE)

Runway information:
10/28 - 10500 x 150 feet< - >3200 x 46 meters

Recent METARs:
TTPP 162300Z 09005KT 9999 FEW018 27/24 Q1011 NOSIG
TTPP 170000Z 00000KT 9999 FEW016 27/24 Q1011 NOSIG
TTPP 170000Z 00000KT 9999 FEW016 27/24 Q1011 NOSIG

Airport on the map: